Jonah, Texas
Current Conditions -  °F | °C
As of 10:50 AM on Friday 28 Nov 2014 (Local Time) from KGTU Reporting Station
Scattered Clouds Scattered Clouds  
Wind Chill: 61°   Ceiling: Unl
Heat Index: 61°   Visibility: 10mi
Dew Point: 52°   Wind: 21mph
Humidity: 72%   Direction: 190°S
Pressure: 30.27"   Gusts: 26mph
Location:  30.6233°N, 97.6645°W
Report Text: KGTU 281650Z 19018G23KT 10SM SCT013 16/11 A3027
Loading
Personal Weather Stations






























Interactive Weather Map New forecast layout! Learn more

10-Day Weather Forecast

Advertisements
Track Severe Weather on mobile